sensor_id;sensor_type;location;lat;lon;timestamp;temperature;humidity
51793;DHT22;37850;53.178;6.376;2023-02-27T00:00:53;0.60;99.90
51793;DHT22;37850;53.178;6.376;2023-02-27T00:03:19;0.60;99.90
51793;DHT22;37850;53.178;6.376;2023-02-27T00:05:44;0.60;99.90
51793;DHT22;37850;53.178;6.376;2023-02-27T00:08:10;1.40;99.90
51793;DHT22;37850;53.178;6.376;2023-02-27T00:10:36;0.60;99.90
51793;DHT22;37850;53.178;6.376;2023-02-27T00:13:04;0.60;99.90
51793;DHT22;37850;53.178;6.376;2023-02-27T00:15:30;0.90;99.90
51793;DHT22;37850;53.178;6.376;2023-02-27T00:17:58;0.80;99.90
51793;DHT22;37850;53.178;6.376;2023-02-27T00:20:24;0.70;99.90
51793;DHT22;37850;53.178;6.376;2023-02-27T00:22:51;0.60;99.90
51793;DHT22;37850;53.178;6.376;2023-02-27T00:25:17;0.60;99.90
51793;DHT22;37850;53.178;6.376;2023-02-27T00:27:44;0.60;99.90
51793;DHT22;37850;53.178;6.376;2023-02-27T00:30:12;0.60;99.90
51793;DHT22;37850;53.178;6.376;2023-02-27T00:32:38;0.60;99.90
51793;DHT22;37850;53.178;6.376;2023-02-27T00:35:06;0.60;99.90
51793;DHT22;37850;53.178;6.376;2023-02-27T00:37:35;0.60;99.90
51793;DHT22;37850;53.178;6.376;2023-02-27T00:40:05;0.50;99.90
51793;DHT22;37850;53.178;6.376;2023-02-27T00:42:35;0.50;99.90
51793;DHT22;37850;53.178;6.376;2023-02-27T00:45:01;0.60;99.90
51793;DHT22;37850;53.178;6.376;2023-02-27T00:47:31;0.90;99.90
51793;DHT22;37850;53.178;6.376;2023-02-27T00:49:57;0.60;99.90
51793;DHT22;37850;53.178;6.376;2023-02-27T00:52:23;0.60;99.90
51793;DHT22;37850;53.178;6.376;2023-02-27T00:54:49;0.50;99.90
51793;DHT22;37850;53.178;6.376;2023-02-27T00:57:15;0.60;99.90
51793;DHT22;37850;53.178;6.376;2023-02-27T00:59:41;0.50;99.90
51793;DHT22;37850;53.178;6.376;2023-02-27T01:02:07;0.50;99.90
51793;DHT22;37850;53.178;6.376;2023-02-27T01:04:32;0.80;99.90
51793;DHT22;37850;53.178;6.376;2023-02-27T01:06:58;0.50;99.90
51793;DHT22;37850;53.178;6.376;2023-02-27T01:09:24;0.50;99.90
51793;DHT22;37850;53.178;6.376;2023-02-27T01:11:50;0.50;99.90
51793;DHT22;37850;53.178;6.376;2023-02-27T01:14:16;0.80;99.90
51793;DHT22;37850;53.178;6.376;2023-02-27T01:16:42;0.40;99.90
51793;DHT22;37850;53.178;6.376;2023-02-27T01:19:08;0.50;99.90
51793;DHT22;37850;53.178;6.376;2023-02-27T01:21:33;0.40;99.90
51793;DHT22;37850;53.178;6.376;2023-02-27T01:23:59;0.40;99.90
51793;DHT22;37850;53.178;6.376;2023-02-27T01:26:25;0.40;99.90
51793;DHT22;37850;53.178;6.376;2023-02-27T01:28:51;0.40;99.90
51793;DHT22;37850;53.178;6.376;2023-02-27T01:31:16;0.40;99.90
51793;DHT22;37850;53.178;6.376;2023-02-27T01:33:42;0.40;99.90
51793;DHT22;37850;53.178;6.376;2023-02-27T01:36:08;0.30;99.90
51793;DHT22;37850;53.178;6.376;2023-02-27T01:38:34;0.30;99.90
51793;DHT22;37850;53.178;6.376;2023-02-27T01:41:00;0.60;99.90
51793;DHT22;37850;53.178;6.376;2023-02-27T01:43:26;0.20;99.90
51793;DHT22;37850;53.178;6.376;2023-02-27T01:45:53;0.70;99.90
51793;DHT22;37850;53.178;6.376;2023-02-27T01:48:27;0.20;99.90
51793;DHT22;37850;53.178;6.376;2023-02-27T01:50:57;0.20;99.90
51793;DHT22;37850;53.178;6.376;2023-02-27T01:53:25;0.20;99.90
51793;DHT22;37850;53.178;6.376;2023-02-27T01:55:57;0.20;99.90
51793;DHT22;37850;53.178;6.376;2023-02-27T01:58:23;0.60;99.90
51793;DHT22;37850;53.178;6.376;2023-02-27T02:00:51;0.10;99.90
51793;DHT22;37850;53.178;6.376;2023-02-27T02:03:32;0.10;99.90
51793;DHT22;37850;53.178;6.376;2023-02-27T02:06:01;0.10;99.90
51793;DHT22;37850;53.178;6.376;2023-02-27T02:08:29;0.10;99.90
51793;DHT22;37850;53.178;6.376;2023-02-27T02:10:57;0.10;99.90
51793;DHT22;37850;53.178;6.376;2023-02-27T02:13:24;0.10;99.90
51793;DHT22;37850;53.178;6.376;2023-02-27T02:16:10;0.10;99.90
51793;DHT22;37850;53.178;6.376;2023-02-27T02:24:31;0.10;99.90
51793;DHT22;37850;53.178;6.376;2023-02-27T02:41:34;0.10;99.90
51793;DHT22;37850;53.178;6.376;2023-02-27T02:44:27;0.10;99.90
51793;DHT22;37850;53.178;6.376;2023-02-27T02:49:56;0.10;99.90
51793;DHT22;37850;53.178;6.376;2023-02-27T02:55:31;0.10;99.90
51793;DHT22;37850;53.178;6.376;2023-02-27T03:01:00;0.10;99.90
51793;DHT22;37850;53.178;6.376;2023-02-27T03:03:35;0.10;99.90
51793;DHT22;37850;53.178;6.376;2023-02-27T03:06:08;0.10;99.90
51793;DHT22;37850;53.178;6.376;2023-02-27T03:08:47;0.10;99.90
51793;DHT22;37850;53.178;6.376;2023-02-27T03:11:14;0.10;99.90
51793;DHT22;37850;53.178;6.376;2023-02-27T03:13:53;0.10;99.90
51793;DHT22;37850;53.178;6.376;2023-02-27T03:16:22;0.50;99.90
51793;DHT22;37850;53.178;6.376;2023-02-27T03:18:58;0.10;99.90
51793;DHT22;37850;53.178;6.376;2023-02-27T03:21:36;0.10;99.90
51793;DHT22;37850;53.178;6.376;2023-02-27T03:24:06;0.10;99.90
51793;DHT22;37850;53.178;6.376;2023-02-27T03:26:36;0.40;99.90
51793;DHT22;37850;53.178;6.376;2023-02-27T03:29:10;0.10;99.90
51793;DHT22;37850;53.178;6.376;2023-02-27T03:32:00;0.10;99.90
51793;DHT22;37850;53.178;6.376;2023-02-27T03:34:36;0.10;99.90
51793;DHT22;37850;53.178;6.376;2023-02-27T03:37:25;0.10;99.90
51793;DHT22;37850;53.178;6.376;2023-02-27T03:39:59;0.10;99.90
51793;DHT22;37850;53.178;6.376;2023-02-27T03:42:49;0.10;99.90
51793;DHT22;37850;53.178;6.376;2023-02-27T03:47:54;0.10;99.90
51793;DHT22;37850;53.178;6.376;2023-02-27T03:50:20;0.10;99.90
51793;DHT22;37850;53.178;6.376;2023-02-27T03:52:46;0.70;99.90
51793;DHT22;37850;53.178;6.376;2023-02-27T03:55:21;0.10;99.90
51793;DHT22;37850;53.178;6.376;2023-02-27T03:57:48;0.90;99.90
51793;DHT22;37850;53.178;6.376;2023-02-27T04:00:21;0.60;99.90
51793;DHT22;37850;53.178;6.376;2023-02-27T04:02:49;0.20;99.90
51793;DHT22;37850;53.178;6.376;2023-02-27T04:05:17;0.30;99.90
51793;DHT22;37850;53.178;6.376;2023-02-27T04:07:47;0.20;99.90
51793;DHT22;37850;53.178;6.376;2023-02-27T04:39:45;0.00;99.90
51793;DHT22;37850;53.178;6.376;2023-02-27T04:42:19;0.00;99.90
51793;DHT22;37850;53.178;6.376;2023-02-27T04:44:46;0.00;99.90
51793;DHT22;37850;53.178;6.376;2023-02-27T04:47:14;-0.10;99.90
51793;DHT22;37850;53.178;6.376;2023-02-27T04:49:53;0.10;99.90
51793;DHT22;37850;53.178;6.376;2023-02-27T04:52:37;-0.10;99.90
51793;DHT22;37850;53.178;6.376;2023-02-27T04:55:26;-0.10;99.90
51793;DHT22;37850;53.178;6.376;2023-02-27T04:58:12;-0.20;99.90
51793;DHT22;37850;53.178;6.376;2023-02-27T05:00:40;-0.20;99.90
51793;DHT22;37850;53.178;6.376;2023-02-27T05:03:21;-0.20;99.90
51793;DHT22;37850;53.178;6.376;2023-02-27T05:05:50;-0.30;99.90
51793;DHT22;37850;53.178;6.376;2023-02-27T05:08:37;-0.30;99.90
51793;DHT22;37850;53.178;6.376;2023-02-27T05:11:22;-0.30;99.90
51793;DHT22;37850;53.178;6.376;2023-02-27T05:13:55;-0.30;99.90
51793;DHT22;37850;53.178;6.376;2023-02-27T05:16:31;-0.30;99.90
51793;DHT22;37850;53.178;6.376;2023-02-27T05:19:01;-0.40;99.90
51793;DHT22;37850;53.178;6.376;2023-02-27T05:26:45;-0.40;99.90
51793;DHT22;37850;53.178;6.376;2023-02-27T05:29:22;-0.50;99.90
51793;DHT22;37850;53.178;6.376;2023-02-27T05:31:54;-0.50;99.90
51793;DHT22;37850;53.178;6.376;2023-02-27T05:34:31;-0.50;99.90
51793;DHT22;37850;53.178;6.376;2023-02-27T05:37:11;-0.50;99.90
51793;DHT22;37850;53.178;6.376;2023-02-27T05:39:39;-0.60;99.90
51793;DHT22;37850;53.178;6.376;2023-02-27T05:42:21;-0.60;99.90
51793;DHT22;37850;53.178;6.376;2023-02-27T05:44:55;-0.60;99.90
51793;DHT22;37850;53.178;6.376;2023-02-27T05:47:26;-0.60;99.90
51793;DHT22;37850;53.178;6.376;2023-02-27T05:52:30;-0.60;99.90
51793;DHT22;37850;53.178;6.376;2023-02-27T05:55:29;-0.70;99.90
51793;DHT22;37850;53.178;6.376;2023-02-27T05:58:16;-0.40;99.90
51793;DHT22;37850;53.178;6.376;2023-02-27T06:00:59;-0.30;99.90
51793;DHT22;37850;53.178;6.376;2023-02-27T06:03:26;-0.70;99.90
51793;DHT22;37850;53.178;6.376;2023-02-27T06:05:54;-0.80;99.90
51793;DHT22;37850;53.178;6.376;2023-02-27T06:08:21;-0.80;99.90
51793;DHT22;37850;53.178;6.376;2023-02-27T06:10:47;-0.80;99.90
51793;DHT22;37850;53.178;6.376;2023-02-27T06:13:15;0.30;99.90
51793;DHT22;37850;53.178;6.376;2023-02-27T06:15:42;-0.80;99.90
51793;DHT22;37850;53.178;6.376;2023-02-27T06:18:09;-0.90;99.90
51793;DHT22;37850;53.178;6.376;2023-02-27T06:20:35;-0.90;99.90
51793;DHT22;37850;53.178;6.376;2023-02-27T06:23:01;-0.80;99.90
51793;DHT22;37850;53.178;6.376;2023-02-27T06:25:27;-0.90;99.90
51793;DHT22;37850;53.178;6.376;2023-02-27T06:27:53;-0.90;99.90
51793;DHT22;37850;53.178;6.376;2023-02-27T06:30:19;-0.90;99.90
51793;DHT22;37850;53.178;6.376;2023-02-27T06:32:44;-0.90;99.90
51793;DHT22;37850;53.178;6.376;2023-02-27T06:35:10;-1.00;99.90
51793;DHT22;37850;53.178;6.376;2023-02-27T06:37:36;-1.00;99.90
51793;DHT22;37850;53.178;6.376;2023-02-27T06:40:06;-1.00;99.90
51793;DHT22;37850;53.178;6.376;2023-02-27T06:42:37;-1.00;99.90
51793;DHT22;37850;53.178;6.376;2023-02-27T06:45:04;-1.00;99.90
51793;DHT22;37850;53.178;6.376;2023-02-27T06:47:30;-1.00;99.90
51793;DHT22;37850;53.178;6.376;2023-02-27T06:49:56;-1.00;99.90
51793;DHT22;37850;53.178;6.376;2023-02-27T06:52:22;-1.00;99.90
51793;DHT22;37850;53.178;6.376;2023-02-27T06:54:48;-1.00;99.90
51793;DHT22;37850;53.178;6.376;2023-02-27T06:57:13;-1.00;99.90
51793;DHT22;37850;53.178;6.376;2023-02-27T06:59:39;-1.00;99.90
51793;DHT22;37850;53.178;6.376;2023-02-27T07:02:06;-1.10;99.90
51793;DHT22;37850;53.178;6.376;2023-02-27T07:04:32;-1.00;99.90
51793;DHT22;37850;53.178;6.376;2023-02-27T07:06:57;0.00;99.90
51793;DHT22;37850;53.178;6.376;2023-02-27T07:09:24;-1.00;99.90
51793;DHT22;37850;53.178;6.376;2023-02-27T07:11:50;-1.00;99.90
51793;DHT22;37850;53.178;6.376;2023-02-27T07:14:16;-1.00;99.90
51793;DHT22;37850;53.178;6.376;2023-02-27T07:16:42;-1.00;99.90
51793;DHT22;37850;53.178;6.376;2023-02-27T07:19:08;-1.00;99.90
51793;DHT22;37850;53.178;6.376;2023-02-27T07:21:34;-0.90;99.90
51793;DHT22;37850;53.178;6.376;2023-02-27T07:24:00;-0.90;99.90
51793;DHT22;37850;53.178;6.376;2023-02-27T07:26:27;-0.90;99.90
51793;DHT22;37850;53.178;6.376;2023-02-27T07:28:53;-0.90;99.90
51793;DHT22;37850;53.178;6.376;2023-02-27T07:31:19;0.20;99.90
51793;DHT22;37850;53.178;6.376;2023-02-27T07:33:45;-0.90;99.90
51793;DHT22;37850;53.178;6.376;2023-02-27T07:36:11;-0.80;99.90
51793;DHT22;37850;53.178;6.376;2023-02-27T07:38:37;-0.80;99.90
51793;DHT22;37850;53.178;6.376;2023-02-27T07:41:03;-0.40;99.90
51793;DHT22;37850;53.178;6.376;2023-02-27T07:43:29;-0.80;99.90
51793;DHT22;37850;53.178;6.376;2023-02-27T07:45:55;-0.70;99.90
51793;DHT22;37850;53.178;6.376;2023-02-27T07:48:20;-0.70;99.90
51793;DHT22;37850;53.178;6.376;2023-02-27T07:50:46;-0.70;99.90
51793;DHT22;37850;53.178;6.376;2023-02-27T07:53:12;-0.70;99.90
51793;DHT22;37850;53.178;6.376;2023-02-27T07:55:38;-0.20;99.90
51793;DHT22;37850;53.178;6.376;2023-02-27T07:58:04;-0.60;99.90
51793;DHT22;37850;53.178;6.376;2023-02-27T08:00:29;-0.60;99.90
51793;DHT22;37850;53.178;6.376;2023-02-27T08:02:55;-0.50;99.90
51793;DHT22;37850;53.178;6.376;2023-02-27T08:05:21;-0.50;99.90
51793;DHT22;37850;53.178;6.376;2023-02-27T08:07:46;-0.40;99.90
51793;DHT22;37850;53.178;6.376;2023-02-27T08:10:12;-0.30;99.90
51793;DHT22;37850;53.178;6.376;2023-02-27T08:12:40;-0.30;99.90
51793;DHT22;37850;53.178;6.376;2023-02-27T08:15:07;-0.10;99.90
51793;DHT22;37850;53.178;6.376;2023-02-27T08:17:33;-0.10;99.90
51793;DHT22;37850;53.178;6.376;2023-02-27T08:19:58;0.00;99.90
51793;DHT22;37850;53.178;6.376;2023-02-27T08:22:24;0.10;99.90
51793;DHT22;37850;53.178;6.376;2023-02-27T08:24:50;0.20;99.90
51793;DHT22;37850;53.178;6.376;2023-02-27T08:27:16;0.20;99.90
51793;DHT22;37850;53.178;6.376;2023-02-27T08:29:42;1.00;99.90
51793;DHT22;37850;53.178;6.376;2023-02-27T08:32:08;0.40;99.90
51793;DHT22;37850;53.178;6.376;2023-02-27T08:34:34;0.80;99.90
51793;DHT22;37850;53.178;6.376;2023-02-27T08:37:00;0.50;99.90
51793;DHT22;37850;53.178;6.376;2023-02-27T08:39:25;0.60;99.90
51793;DHT22;37850;53.178;6.376;2023-02-27T08:41:51;0.60;99.90
51793;DHT22;37850;53.178;6.376;2023-02-27T08:44:18;0.70;99.90
51793;DHT22;37850;53.178;6.376;2023-02-27T08:46:44;0.70;99.90
51793;DHT22;37850;53.178;6.376;2023-02-27T08:49:10;0.80;99.90
51793;DHT22;37850;53.178;6.376;2023-02-27T08:51:36;0.90;99.90
51793;DHT22;37850;53.178;6.376;2023-02-27T08:54:02;1.00;99.90
51793;DHT22;37850;53.178;6.376;2023-02-27T08:56:28;1.10;99.90
51793;DHT22;37850;53.178;6.376;2023-02-27T08:58:55;2.60;99.90
51793;DHT22;37850;53.178;6.376;2023-02-27T09:01:21;1.40;99.90
51793;DHT22;37850;53.178;6.376;2023-02-27T09:03:47;1.80;99.90
51793;DHT22;37850;53.178;6.376;2023-02-27T09:06:12;1.50;99.90
51793;DHT22;37850;53.178;6.376;2023-02-27T09:08:38;1.60;99.90
51793;DHT22;37850;53.178;6.376;2023-02-27T09:11:04;1.80;99.90
51793;DHT22;37850;53.178;6.376;2023-02-27T09:13:30;1.90;99.90
51793;DHT22;37850;53.178;6.376;2023-02-27T09:15:55;2.00;99.90
51793;DHT22;37850;53.178;6.376;2023-02-27T09:18:21;2.10;99.90
51793;DHT22;37850;53.178;6.376;2023-02-27T09:20:50;2.20;99.90
51793;DHT22;37850;53.178;6.376;2023-02-27T09:23:17;3.20;99.90
51793;DHT22;37850;53.178;6.376;2023-02-27T09:25:43;2.60;99.90
51793;DHT22;37850;53.178;6.376;2023-02-27T09:28:09;2.80;99.90
51793;DHT22;37850;53.178;6.376;2023-02-27T09:30:35;2.80;99.90
51793;DHT22;37850;53.178;6.376;2023-02-27T09:33:00;3.00;99.90
51793;DHT22;37850;53.178;6.376;2023-02-27T09:35:26;3.10;99.90
51793;DHT22;37850;53.178;6.376;2023-02-27T09:37:52;3.30;99.90
51793;DHT22;37850;53.178;6.376;2023-02-27T09:40:26;3.20;99.90
51793;DHT22;37850;53.178;6.376;2023-02-27T09:42:55;3.40;99.90
51793;DHT22;37850;53.178;6.376;2023-02-27T09:45:27;3.50;99.90
51793;DHT22;37850;53.178;6.376;2023-02-27T09:48:02;3.60;99.90
51793;DHT22;37850;53.178;6.376;2023-02-27T09:52:59;3.80;99.90
51793;DHT22;37850;53.178;6.376;2023-02-27T09:55:30;3.80;99.90
51793;DHT22;37850;53.178;6.376;2023-02-27T09:58:35;3.90;99.90
51793;DHT22;37850;53.178;6.376;2023-02-27T10:01:20;4.00;99.90
51793;DHT22;37850;53.178;6.376;2023-02-27T10:07:11;4.20;99.90
51793;DHT22;37850;53.178;6.376;2023-02-27T10:10:12;4.30;99.90
51793;DHT22;37850;53.178;6.376;2023-02-27T10:13:30;4.40;99.90
51793;DHT22;37850;53.178;6.376;2023-02-27T10:15:58;4.50;99.90
51793;DHT22;37850;53.178;6.376;2023-02-27T10:18:29;4.60;99.90
51793;DHT22;37850;53.178;6.376;2023-02-27T10:26:26;4.80;99.90
51793;DHT22;37850;53.178;6.376;2023-02-27T10:28:52;4.90;99.90
51793;DHT22;37850;53.178;6.376;2023-02-27T10:31:30;5.00;99.90
51793;DHT22;37850;53.178;6.376;2023-02-27T10:33:59;5.00;99.90
51793;DHT22;37850;53.178;6.376;2023-02-27T10:36:25;5.10;99.90
51793;DHT22;37850;53.178;6.376;2023-02-27T10:38:55;5.10;99.90
51793;DHT22;37850;53.178;6.376;2023-02-27T10:41:23;5.10;99.90
51793;DHT22;37850;53.178;6.376;2023-02-27T10:43:52;5.20;99.90
51793;DHT22;37850;53.178;6.376;2023-02-27T10:46:30;5.30;99.90
51793;DHT22;37850;53.178;6.376;2023-02-27T10:49:00;5.30;99.90
51793;DHT22;37850;53.178;6.376;2023-02-27T10:51:33;5.30;99.90
51793;DHT22;37850;53.178;6.376;2023-02-27T10:54:23;5.40;99.90
51793;DHT22;37850;53.178;6.376;2023-02-27T10:56:52;5.40;99.90
51793;DHT22;37850;53.178;6.376;2023-02-27T10:59:25;5.40;99.90
51793;DHT22;37850;53.178;6.376;2023-02-27T11:01:57;5.90;99.90
51793;DHT22;37850;53.178;6.376;2023-02-27T11:04:38;5.40;99.90
51793;DHT22;37850;53.178;6.376;2023-02-27T11:07:06;5.50;99.90
51793;DHT22;37850;53.178;6.376;2023-02-27T11:09:34;5.50;99.90
51793;DHT22;37850;53.178;6.376;2023-02-27T11:12:26;5.60;99.90
51793;DHT22;37850;53.178;6.376;2023-02-27T11:15:01;5.60;99.90
51793;DHT22;37850;53.178;6.376;2023-02-27T11:17:30;5.20;99.90
51793;DHT22;37850;53.178;6.376;2023-02-27T11:20:04;5.70;99.90
51793;DHT22;37850;53.178;6.376;2023-02-27T11:23:02;5.70;99.90
51793;DHT22;37850;53.178;6.376;2023-02-27T11:25:28;5.80;99.90
51793;DHT22;37850;53.178;6.376;2023-02-27T11:28:19;5.80;99.90
51793;DHT22;37850;53.178;6.376;2023-02-27T11:31:02;5.70;99.90
51793;DHT22;37850;53.178;6.376;2023-02-27T11:33:32;5.80;99.90
51793;DHT22;37850;53.178;6.376;2023-02-27T11:35:59;5.90;99.90
51793;DHT22;37850;53.178;6.376;2023-02-27T11:38:28;5.90;99.90
51793;DHT22;37850;53.178;6.376;2023-02-27T11:41:00;5.90;99.90
51793;DHT22;37850;53.178;6.376;2023-02-27T11:46:09;5.90;99.90
51793;DHT22;37850;53.178;6.376;2023-02-27T11:48:45;6.00;99.90
51793;DHT22;37850;53.178;6.376;2023-02-27T11:56:34;6.10;99.90
51793;DHT22;37850;53.178;6.376;2023-02-27T12:07:27;6.30;99.90
51793;DHT22;37850;53.178;6.376;2023-02-27T12:10:05;6.40;99.90
51793;DHT22;37850;53.178;6.376;2023-02-27T12:12:56;6.40;99.90
51793;DHT22;37850;53.178;6.376;2023-02-27T12:15:40;6.40;99.90
51793;DHT22;37850;53.178;6.376;2023-02-27T12:18:18;6.40;99.90
51793;DHT22;37850;53.178;6.376;2023-02-27T12:23:48;6.40;99.90
51793;DHT22;37850;53.178;6.376;2023-02-27T12:32:00;6.30;99.90
51793;DHT22;37850;53.178;6.376;2023-02-27T12:34:51;6.30;99.90
51793;DHT22;37850;53.178;6.376;2023-02-27T12:37:26;6.30;99.90
51793;DHT22;37850;53.178;6.376;2023-02-27T12:39:58;6.30;99.90
51793;DHT22;37850;53.178;6.376;2023-02-27T12:51:14;6.40;99.90
51793;DHT22;37850;53.178;6.376;2023-02-27T12:54:15;6.40;99.90
51793;DHT22;37850;53.178;6.376;2023-02-27T12:57:05;6.40;99.90
51793;DHT22;37850;53.178;6.376;2023-02-27T13:02:44;6.40;99.90
51793;DHT22;37850;53.178;6.376;2023-02-27T13:08:19;6.30;99.90
51793;DHT22;37850;53.178;6.376;2023-02-27T13:11:29;6.30;99.90
51793;DHT22;37850;53.178;6.376;2023-02-27T13:13:49;6.40;99.90
51793;DHT22;37850;53.178;6.376;2023-02-27T13:16:28;6.40;99.90
51793;DHT22;37850;53.178;6.376;2023-02-27T13:19:13;6.40;99.90
51793;DHT22;37850;53.178;6.376;2023-02-27T13:24:22;6.40;99.90
51793;DHT22;37850;53.178;6.376;2023-02-27T13:29:23;6.30;99.90
51793;DHT22;37850;53.178;6.376;2023-02-27T13:34:46;6.30;99.90
51793;DHT22;37850;53.178;6.376;2023-02-27T13:37:12;6.30;99.90
51793;DHT22;37850;53.178;6.376;2023-02-27T13:39:49;6.40;99.90
51793;DHT22;37850;53.178;6.376;2023-02-27T13:45:07;6.50;99.90
51793;DHT22;37850;53.178;6.376;2023-02-27T13:47:49;6.50;99.90
51793;DHT22;37850;53.178;6.376;2023-02-27T13:52:47;6.60;99.90
51793;DHT22;37850;53.178;6.376;2023-02-27T13:55:32;6.60;99.90
51793;DHT22;37850;53.178;6.376;2023-02-27T13:58:05;6.60;99.90
51793;DHT22;37850;53.178;6.376;2023-02-27T14:00:38;6.70;99.90
51793;DHT22;37850;53.178;6.376;2023-02-27T14:03:27;6.60;99.90
51793;DHT22;37850;53.178;6.376;2023-02-27T14:05:57;6.60;99.90
51793;DHT22;37850;53.178;6.376;2023-02-27T14:08:32;6.60;99.90
51793;DHT22;37850;53.178;6.376;2023-02-27T14:21:53;6.60;99.90
51793;DHT22;37850;53.178;6.376;2023-02-27T14:27:00;6.60;99.90
51793;DHT22;37850;53.178;6.376;2023-02-27T14:29:28;6.50;99.90
51793;DHT22;37850;53.178;6.376;2023-02-27T14:31:59;6.50;99.90
51793;DHT22;37850;53.178;6.376;2023-02-27T14:34:32;6.50;99.90
51793;DHT22;37850;53.178;6.376;2023-02-27T14:37:01;6.60;99.90
51793;DHT22;37850;53.178;6.376;2023-02-27T14:39:34;6.60;99.90
51793;DHT22;37850;53.178;6.376;2023-02-27T14:44:53;6.50;99.90
51793;DHT22;37850;53.178;6.376;2023-02-27T14:47:23;6.50;99.90
51793;DHT22;37850;53.178;6.376;2023-02-27T14:49:50;6.50;99.90
51793;DHT22;37850;53.178;6.376;2023-02-27T14:52:22;6.60;99.90
51793;DHT22;37850;53.178;6.376;2023-02-27T14:54:49;6.60;99.90
51793;DHT22;37850;53.178;6.376;2023-02-27T14:57:23;6.60;99.90
51793;DHT22;37850;53.178;6.376;2023-02-27T14:59:54;6.50;99.90
51793;DHT22;37850;53.178;6.376;2023-02-27T15:02:32;6.60;99.90
51793;DHT22;37850;53.178;6.376;2023-02-27T15:07:32;6.50;99.90
51793;DHT22;37850;53.178;6.376;2023-02-27T15:10:04;6.60;99.90
51793;DHT22;37850;53.178;6.376;2023-02-27T15:12:33;6.60;99.90
51793;DHT22;37850;53.178;6.376;2023-02-27T15:15:02;6.60;99.90
51793;DHT22;37850;53.178;6.376;2023-02-27T15:17:41;6.60;99.90
51793;DHT22;37850;53.178;6.376;2023-02-27T15:22:49;6.60;99.90
51793;DHT22;37850;53.178;6.376;2023-02-27T15:25:26;6.60;99.90
51793;DHT22;37850;53.178;6.376;2023-02-27T15:27:54;6.50;99.90
51793;DHT22;37850;53.178;6.376;2023-02-27T15:30:21;7.00;99.90
51793;DHT22;37850;53.178;6.376;2023-02-27T15:32:48;6.50;99.90
51793;DHT22;37850;53.178;6.376;2023-02-27T15:35:15;6.50;99.90
51793;DHT22;37850;53.178;6.376;2023-02-27T15:37:47;6.50;99.90
51793;DHT22;37850;53.178;6.376;2023-02-27T15:40:20;6.50;99.90
51793;DHT22;37850;53.178;6.376;2023-02-27T15:42:46;6.50;99.90
51793;DHT22;37850;53.178;6.376;2023-02-27T15:45:18;6.50;99.90
51793;DHT22;37850;53.178;6.376;2023-02-27T15:47:44;6.40;99.90
51793;DHT22;37850;53.178;6.376;2023-02-27T15:50:26;6.90;99.90
51793;DHT22;37850;53.178;6.376;2023-02-27T15:55:33;6.40;99.90
51793;DHT22;37850;53.178;6.376;2023-02-27T15:58:00;6.40;99.90
51793;DHT22;37850;53.178;6.376;2023-02-27T16:00:28;6.30;99.90
51793;DHT22;37850;53.178;6.376;2023-02-27T16:02:55;6.30;99.90
51793;DHT22;37850;53.178;6.376;2023-02-27T16:05:33;6.30;99.90
51793;DHT22;37850;53.178;6.376;2023-02-27T16:08:00;6.30;99.90
51793;DHT22;37850;53.178;6.376;2023-02-27T16:10:32;6.20;99.90
51793;DHT22;37850;53.178;6.376;2023-02-27T16:13:36;6.20;99.90
51793;DHT22;37850;53.178;6.376;2023-02-27T16:16:05;6.20;99.90
51793;DHT22;37850;53.178;6.376;2023-02-27T16:18:45;6.20;99.90
51793;DHT22;37850;53.178;6.376;2023-02-27T16:21:17;6.20;99.90
51793;DHT22;37850;53.178;6.376;2023-02-27T16:23:43;6.20;99.90
51793;DHT22;37850;53.178;6.376;2023-02-27T16:26:29;6.10;99.90
51793;DHT22;37850;53.178;6.376;2023-02-27T16:29:14;6.10;99.90
51793;DHT22;37850;53.178;6.376;2023-02-27T16:32:01;6.10;99.90
51793;DHT22;37850;53.178;6.376;2023-02-27T16:34:36;5.80;99.90
51793;DHT22;37850;53.178;6.376;2023-02-27T16:37:29;6.00;99.90
51793;DHT22;37850;53.178;6.376;2023-02-27T16:39:56;6.00;99.90
51793;DHT22;37850;53.178;6.376;2023-02-27T16:42:22;6.00;99.90
51793;DHT22;37850;53.178;6.376;2023-02-27T16:44:48;6.40;99.90
51793;DHT22;37850;53.178;6.376;2023-02-27T16:47:14;5.90;99.90
51793;DHT22;37850;53.178;6.376;2023-02-27T16:49:40;5.90;99.90
51793;DHT22;37850;53.178;6.376;2023-02-27T16:52:10;5.90;99.90
51793;DHT22;37850;53.178;6.376;2023-02-27T16:54:36;5.90;99.90
51793;DHT22;37850;53.178;6.376;2023-02-27T16:57:05;5.90;99.90
51793;DHT22;37850;53.178;6.376;2023-02-27T16:59:35;6.20;99.90
51793;DHT22;37850;53.178;6.376;2023-02-27T17:02:10;5.80;99.90
51793;DHT22;37850;53.178;6.376;2023-02-27T17:04:37;5.80;99.90
51793;DHT22;37850;53.178;6.376;2023-02-27T17:07:02;5.70;99.90
51793;DHT22;37850;53.178;6.376;2023-02-27T17:09:28;5.70;99.90
51793;DHT22;37850;53.178;6.376;2023-02-27T17:11:55;6.20;99.90
51793;DHT22;37850;53.178;6.376;2023-02-27T17:14:22;5.70;99.90
51793;DHT22;37850;53.178;6.376;2023-02-27T17:16:48;5.60;99.90
51793;DHT22;37850;53.178;6.376;2023-02-27T17:19:15;5.60;99.90
51793;DHT22;37850;53.178;6.376;2023-02-27T17:21:41;5.60;99.90
51793;DHT22;37850;53.178;6.376;2023-02-27T17:24:07;5.50;99.90
51793;DHT22;37850;53.178;6.376;2023-02-27T17:26:34;5.50;99.90
51793;DHT22;37850;53.178;6.376;2023-02-27T17:29:00;5.40;99.90
51793;DHT22;37850;53.178;6.376;2023-02-27T17:31:27;5.40;99.90
51793;DHT22;37850;53.178;6.376;2023-02-27T17:33:53;5.50;99.90
51793;DHT22;37850;53.178;6.376;2023-02-27T17:36:21;5.30;99.90
51793;DHT22;37850;53.178;6.376;2023-02-27T17:38:47;4.80;99.90
51793;DHT22;37850;53.178;6.376;2023-02-27T17:41:14;5.30;99.90
51793;DHT22;37850;53.178;6.376;2023-02-27T17:43:40;5.30;99.90
51793;DHT22;37850;53.178;6.376;2023-02-27T17:46:10;5.30;99.90
51793;DHT22;37850;53.178;6.376;2023-02-27T17:48:37;5.80;99.90
51793;DHT22;37850;53.178;6.376;2023-02-27T17:51:11;5.30;99.90
51793;DHT22;37850;53.178;6.376;2023-02-27T17:53:38;5.20;99.90
51793;DHT22;37850;53.178;6.376;2023-02-27T17:56:05;5.20;99.90
51793;DHT22;37850;53.178;6.376;2023-02-27T17:58:31;5.10;99.90
51793;DHT22;37850;53.178;6.376;2023-02-27T18:01:09;5.10;99.90
51793;DHT22;37850;53.178;6.376;2023-02-27T18:03:39;5.00;99.90
51793;DHT22;37850;53.178;6.376;2023-02-27T18:06:05;5.00;99.90
51793;DHT22;37850;53.178;6.376;2023-02-27T18:08:34;5.00;99.90
51793;DHT22;37850;53.178;6.376;2023-02-27T18:11:00;4.90;99.90
51793;DHT22;37850;53.178;6.376;2023-02-27T18:13:27;4.90;99.90
51793;DHT22;37850;53.178;6.376;2023-02-27T18:15:54;4.90;99.90
51793;DHT22;37850;53.178;6.376;2023-02-27T18:18:20;4.90;99.90
51793;DHT22;37850;53.178;6.376;2023-02-27T18:20:46;5.30;99.90
51793;DHT22;37850;53.178;6.376;2023-02-27T18:23:13;4.90;99.90
51793;DHT22;37850;53.178;6.376;2023-02-27T18:25:40;4.90;99.90
51793;DHT22;37850;53.178;6.376;2023-02-27T18:28:06;4.80;99.90
51793;DHT22;37850;53.178;6.376;2023-02-27T18:30:36;4.80;99.90
51793;DHT22;37850;53.178;6.376;2023-02-27T18:33:02;4.90;99.90
51793;DHT22;37850;53.178;6.376;2023-02-27T18:35:28;4.80;99.90
51793;DHT22;37850;53.178;6.376;2023-02-27T18:37:53;4.80;99.90
51793;DHT22;37850;53.178;6.376;2023-02-27T18:40:19;4.80;99.90
51793;DHT22;37850;53.178;6.376;2023-02-27T18:42:49;4.70;99.90